createdAt,value
2018-04-01T00:00:01.813Z,79.95
2018-04-01T00:01:03.835Z,73.53
2018-04-01T00:02:06.587Z,74.75
2018-04-01T00:03:08.564Z,78.30
2018-04-01T00:04:10.698Z,80.50
2018-04-01T00:05:12.696Z,68.57
2018-04-01T00:06:14.692Z,79.10
2018-04-01T00:07:16.697Z,73.18
2018-04-01T00:08:19.462Z,65.28
2018-04-01T00:09:21.449Z,80.38
2018-04-01T00:10:23.481Z,76.35
2018-04-01T00:11:25.951Z,71.87
2018-04-01T00:12:27.939Z,76.22
2018-04-01T00:13:29.927Z,75.80
2018-04-01T00:14:31.937Z,74.07
2018-04-01T00:15:34.710Z,74.20
2018-04-01T00:16:37.484Z,69.72
2018-04-01T00:30:34.509Z,53.58
2018-04-01T00:31:36.512Z,55.00
2018-04-01T00:32:38.511Z,59.60
2018-04-01T00:33:41.275Z,67.95
2018-04-01T00:34:44.042Z,63.95
2018-04-01T00:35:46.024Z,61.50
2018-04-01T00:36:48.037Z,64.10
2018-04-01T00:37:50.039Z,64.93
2018-04-01T00:38:52.798Z,68.25
2018-04-01T00:39:54.789Z,62.80
2018-04-01T00:40:56.789Z,66.32
2018-04-01T00:41:58.793Z,59.60
2018-04-01T00:43:01.567Z,65.97
2018-04-01T00:44:04.327Z,59.75
2018-04-01T00:45:06.325Z,61.00
2018-04-01T00:46:08.322Z,57.35
2018-04-01T00:47:10.330Z,58.72
2018-04-01T00:48:12.342Z,61.55
2018-04-01T00:49:14.339Z,63.33
2018-04-01T00:50:17.096Z,61.20
2018-04-01T00:51:19.088Z,58.00
2018-04-01T00:52:21.139Z,64.75
2018-04-01T00:53:23.112Z,56.47
2018-04-01T00:54:25.116Z,65.82
2018-04-01T00:55:27.097Z,59.88
2018-04-01T00:56:30.011Z,58.53
2018-04-01T00:57:31.998Z,59.85
2018-04-01T00:58:33.999Z,57.10
2018-04-01T00:59:36.768Z,59.67
2018-04-01T01:00:38.776Z,59.35
2018-04-01T01:01:41.094Z,60.78
2018-04-01T01:02:43.081Z,62.17
2018-04-01T01:03:45.071Z,64.50
2018-04-01T01:04:47.075Z,63.15
2018-04-01T01:05:49.842Z,65.25
2018-04-01T01:06:51.836Z,74.07
2018-04-01T01:07:53.831Z,66.50
2018-04-01T01:08:55.896Z,64.32
2018-04-01T01:09:57.893Z,69.40
2018-04-01T01:11:00.638Z,65.70
2018-04-01T01:12:02.637Z,69.45
2018-04-01T01:13:05.391Z,64.72
2018-04-01T01:14:07.395Z,64.55
2018-04-01T01:15:09.374Z,63.45
2018-04-01T01:16:11.583Z,66.78
2018-04-01T01:17:14.338Z,65.07
2018-04-01T01:18:16.331Z,62.35
2018-04-01T01:19:19.099Z,62.55
2018-04-01T01:20:21.875Z,65.72
2018-04-01T01:21:24.622Z,70.70
2018-04-01T01:22:26.614Z,66.22
2018-04-01T01:23:29.379Z,67.15
2018-04-01T01:24:31.375Z,69.43
2018-04-01T01:25:33.364Z,64.53
2018-04-01T01:26:35.352Z,63.17
2018-04-01T01:27:37.342Z,67.43
2018-04-01T01:28:39.352Z,65.37
2018-04-01T01:29:41.362Z,64.93
2018-04-01T01:30:43.839Z,64.82
2018-04-01T01:31:45.820Z,67.43
2018-04-01T01:32:47.810Z,63.20
2018-04-01T01:33:49.815Z,67.15
2018-04-01T01:34:51.824Z,67.47
2018-04-01T01:35:53.841Z,71.37
2018-04-01T01:36:55.865Z,61.88
2018-04-01T01:37:58.988Z,63.67
2018-04-01T01:39:00.977Z,63.95
2018-04-01T01:40:02.979Z,67.57
2018-04-01T01:41:04.973Z,64.55
2018-04-01T01:42:06.957Z,61.88
2018-04-01T01:43:08.944Z,69.85
2018-04-01T01:44:11.690Z,68.68
2018-04-01T01:45:13.702Z,63.72
2018-04-01T01:46:15.715Z,65.07
2018-04-01T01:47:17.711Z,68.50
2018-04-01T01:48:19.758Z,70.15
2018-04-01T01:49:23.112Z,66.40
2018-04-01T01:50:25.462Z,72.90
2018-04-01T01:51:28.013Z,67.15
2018-04-01T01:52:30.004Z,70.70
2018-04-01T01:53:32.937Z,66.97
2018-04-01T01:54:34.932Z,62.55
2018-04-01T01:55:36.941Z,68.80
2018-04-01T01:56:39.697Z,65.93
2018-04-01T01:57:41.688Z,62.88
2018-04-01T01:58:44.441Z,70.30
2018-04-01T01:59:46.431Z,66.55
2018-04-01T02:00:48.442Z,65.35
2018-04-01T02:01:50.440Z,72.78
2018-04-01T02:02:53.217Z,68.47
2018-04-01T02:03:56.713Z,68.50
2018-04-01T02:04:59.733Z,69.60
2018-04-01T02:06:01.715Z,68.45
2018-04-01T02:07:03.938Z,72.30
2018-04-01T02:08:05.927Z,71.70
2018-04-01T02:09:07.928Z,71.47
2018-04-01T02:10:10.688Z,66.37
2018-04-01T02:11:12.687Z,71.30
2018-04-01T02:12:14.685Z,71.35
2018-04-01T02:13:16.673Z,65.65
2018-04-01T02:14:18.657Z,71.00
2018-04-01T02:15:20.684Z,67.03
2018-04-01T02:16:22.694Z,65.15
2018-04-01T02:17:25.446Z,68.78
2018-04-01T02:18:27.452Z,67.20
2018-04-01T02:19:29.449Z,72.28
2018-04-01T02:20:32.211Z,70.75
2018-04-01T02:21:34.208Z,65.93
2018-04-01T02:22:36.214Z,65.85
2018-04-01T02:23:38.208Z,64.85
2018-04-01T02:24:40.966Z,68.45
2018-04-01T02:25:42.960Z,61.90
2018-04-01T02:26:44.960Z,67.00
2018-04-01T02:27:46.977Z,67.60
2018-04-01T02:28:48.992Z,64.05
2018-04-01T02:29:51.187Z,68.47
2018-04-01T02:30:53.936Z,64.30
2018-04-01T02:31:56.560Z,60.35
2018-04-01T02:32:58.557Z,58.80
2018-04-01T02:34:00.567Z,59.00
2018-04-01T02:35:03.581Z,61.15
2018-04-01T02:36:05.586Z,59.40
2018-04-01T02:37:08.337Z,60.30
2018-04-01T02:38:10.356Z,64.22
2018-04-01T02:39:12.716Z,64.93
2018-04-01T02:40:14.705Z,61.65
2018-04-01T02:41:16.706Z,62.80
2018-04-01T02:42:19.475Z,61.35
2018-04-01T02:43:21.909Z,66.78
2018-04-01T02:44:23.910Z,64.00
2018-04-01T02:45:25.896Z,59.08
2018-04-01T02:46:27.951Z,53.85
2018-04-01T02:47:29.940Z,54.55
2018-04-01T02:48:31.939Z,56.88
2018-04-01T02:49:33.933Z,58.83
2018-04-01T02:50:35.967Z,57.67
2018-04-01T02:51:37.940Z,53.10
2018-04-01T02:52:39.935Z,57.65
2018-04-01T02:53:42.702Z,53.38
2018-04-01T02:54:44.686Z,54.00
2018-04-01T02:55:46.986Z,56.33
2018-04-01T02:56:49.736Z,56.37
2018-04-01T02:57:51.720Z,57.75
2018-04-01T02:58:53.761Z,49.53
2018-04-01T02:59:55.749Z,56.55
2018-04-01T03:00:57.742Z,57.13
2018-04-01T03:02:00.040Z,57.42
2018-04-01T03:03:02.565Z,53.83
2018-04-01T03:04:04.594Z,57.35
2018-04-01T03:05:07.355Z,51.40
2018-04-01T03:06:09.375Z,51.10
2018-04-01T03:07:12.130Z,53.63
2018-04-01T03:08:14.115Z,53.42
2018-04-01T03:09:16.118Z,48.47
2018-04-01T03:10:18.539Z,52.90
2018-04-01T03:11:20.545Z,47.80
2018-04-01T03:12:22.626Z,52.80
2018-04-01T03:13:24.628Z,53.87
2018-04-01T03:14:26.638Z,46.22
2018-04-01T03:15:29.394Z,55.30
2018-04-01T03:16:31.402Z,52.83
2018-04-01T03:17:33.393Z,55.12
2018-04-01T03:18:35.431Z,49.42
2018-04-01T03:19:37.447Z,52.30
2018-04-01T03:20:39.453Z,52.05
2018-04-01T03:21:41.433Z,54.60
2018-04-01T03:22:43.460Z,50.00
2018-04-01T03:23:45.444Z,50.88
2018-04-01T03:24:47.469Z,51.33
2018-04-01T03:25:49.459Z,58.30
2018-04-01T03:26:51.467Z,56.80
2018-04-01T03:27:54.225Z,48.90
2018-04-01T03:28:56.217Z,51.70
2018-04-01T03:29:58.221Z,51.42
2018-04-01T03:31:00.222Z,55.15
2018-04-01T03:32:02.996Z,56.53
2018-04-01T03:33:05.753Z,53.35
2018-04-01T03:34:07.745Z,55.35
2018-04-01T03:35:09.748Z,50.92
2018-04-01T03:36:12.275Z,51.67
2018-04-01T03:37:14.266Z,51.45
2018-04-01T03:38:16.246Z,56.60
2018-04-01T03:39:18.228Z,54.63
2018-04-01T03:40:20.979Z,53.10
2018-04-01T03:41:22.973Z,52.30
2018-04-01T03:42:24.982Z,51.58
2018-04-01T03:43:26.993Z,56.03
2018-04-01T03:44:28.988Z,50.05
2018-04-01T03:45:30.966Z,51.55
2018-04-01T03:46:33.738Z,51.15
2018-04-01T03:47:35.723Z,57.30
2018-04-01T03:48:37.716Z,47.95
2018-04-01T03:49:40.264Z,51.72
2018-04-01T03:50:43.147Z,53.58
2018-04-01T03:51:45.884Z,54.28
2018-04-01T03:52:48.111Z,49.50
2018-04-01T03:53:50.120Z,53.38
2018-04-01T03:54:52.106Z,53.83
2018-04-01T03:55:54.892Z,47.05
2018-04-01T03:56:56.909Z,55.85
2018-04-01T03:57:59.368Z,56.88
2018-04-01T03:59:01.358Z,52.92
2018-04-01T04:00:04.145Z,53.83
2018-04-01T04:01:06.916Z,54.35
2018-04-01T04:02:09.679Z,55.58
2018-04-01T04:03:12.433Z,56.00
2018-04-01T04:04:14.428Z,56.28
2018-04-01T04:05:17.183Z,57.45
2018-04-01T04:06:19.165Z,56.10
2018-04-01T04:07:21.925Z,53.45
2018-04-01T04:08:23.917Z,52.53
2018-04-01T04:09:25.924Z,53.20
2018-04-01T04:10:27.925Z,56.42
2018-04-01T04:11:30.676Z,51.42
2018-04-01T04:12:32.670Z,58.17
2018-04-01T04:13:34.658Z,53.72
2018-04-01T04:14:36.658Z,55.25
2018-04-01T04:15:38.663Z,56.65
2018-04-01T04:16:41.491Z,60.90
2018-04-01T04:17:43.485Z,52.33
2018-04-01T04:18:45.499Z,50.28
2018-04-01T04:19:47.490Z,56.40
2018-04-01T04:20:50.251Z,53.53
2018-04-01T04:21:52.246Z,56.75
2018-04-01T04:22:54.292Z,58.72
2018-04-01T04:23:56.305Z,58.50
2018-04-01T04:24:58.292Z,54.47
2018-04-01T04:26:00.280Z,58.55
2018-04-01T04:27:02.269Z,57.38
2018-04-01T04:28:04.250Z,57.35
2018-04-01T04:29:06.244Z,56.70
2018-04-01T04:30:08.254Z,55.47
2018-04-01T04:31:10.321Z,58.83
2018-04-01T04:32:12.309Z,57.40
2018-04-01T04:33:15.072Z,59.35
2018-04-01T04:34:17.043Z,54.45
2018-04-01T04:35:19.804Z,51.67
2018-04-01T04:36:22.319Z,54.05
2018-04-01T04:37:24.320Z,55.85
2018-04-01T04:38:26.325Z,55.78
2018-04-01T04:39:28.303Z,56.20
2018-04-01T04:40:30.282Z,53.63
2018-04-01T04:41:32.283Z,58.05
2018-04-01T04:42:35.112Z,60.45
2018-04-01T04:53:23.261Z,47.25
2018-04-01T04:54:25.285Z,49.95
2018-04-01T04:55:27.307Z,51.83
2018-04-01T04:56:29.345Z,55.33
2018-04-01T04:57:31.308Z,48.92
2018-04-01T04:58:33.298Z,55.17
2018-04-01T04:59:35.323Z,57.08
2018-04-01T05:00:37.314Z,52.85
2018-04-01T05:01:39.314Z,54.92
2018-04-01T05:02:41.313Z,57.42
2018-04-01T05:03:43.300Z,55.83
2018-04-01T05:04:46.086Z,51.88
2018-04-01T05:05:48.088Z,63.33
2018-04-01T05:06:51.201Z,57.83
2018-04-01T05:07:53.265Z,59.33
2018-04-01T05:08:55.273Z,58.17
2018-04-01T05:09:57.276Z,57.22
2018-04-01T05:10:59.285Z,53.40
2018-04-01T05:12:01.361Z,57.50
2018-04-01T05:13:03.378Z,54.92
2018-04-01T05:14:05.369Z,56.08
2018-04-01T05:15:07.364Z,53.20
2018-04-01T05:16:09.348Z,61.20
2018-04-01T05:17:11.475Z,56.80
2018-04-01T05:18:13.468Z,56.53
2018-04-01T05:19:16.222Z,51.58
2018-04-01T05:20:18.216Z,52.95
2018-04-01T05:21:20.993Z,49.90
2018-04-01T05:22:23.765Z,48.17
2018-04-01T05:23:26.521Z,53.53
2018-04-01T05:24:28.539Z,56.13
2018-04-01T05:25:30.553Z,52.67
2018-04-01T05:26:32.538Z,45.10
2018-04-01T05:27:34.536Z,49.38
2018-04-01T05:28:36.534Z,47.90
2018-04-01T05:29:39.290Z,42.15
2018-04-01T05:30:41.754Z,50.80
2018-04-01T05:31:44.335Z,44.28
2018-04-01T05:32:46.342Z,47.35
2018-04-01T05:33:48.325Z,45.08
2018-04-01T05:34:50.329Z,44.10
2018-04-01T05:35:53.084Z,44.75
2018-04-01T05:36:55.059Z,46.95
2018-04-01T05:37:58.539Z,45.50
2018-04-01T05:39:00.869Z,44.78
2018-04-01T05:40:03.992Z,47.65
2018-04-01T05:41:06.756Z,44.72
2018-04-01T05:42:08.747Z,44.53
2018-04-01T05:43:11.731Z,47.35
2018-04-01T05:44:14.558Z,46.50
2018-04-01T05:45:16.549Z,49.97
2018-04-01T05:46:19.029Z,53.92
2018-04-01T05:47:21.016Z,51.15
2018-04-01T05:48:23.015Z,50.28
2018-04-01T05:49:25.073Z,58.95
2018-04-01T05:50:27.073Z,52.35
2018-04-01T05:51:29.881Z,52.50
2018-04-01T05:52:32.610Z,53.67
2018-04-01T05:53:34.610Z,56.17
2018-04-01T05:54:36.625Z,52.03
2018-04-01T05:55:38.603Z,56.28
2018-04-01T05:56:41.832Z,54.10
2018-04-01T05:57:43.831Z,56.67
2018-04-01T05:58:45.846Z,55.63
2018-04-01T05:59:48.701Z,52.15
2018-04-01T06:00:51.468Z,56.22
2018-04-01T06:01:54.221Z,56.15
2018-04-01T06:02:56.235Z,53.22
2018-04-01T06:03:58.507Z,58.80
2018-04-01T06:05:00.565Z,58.20
2018-04-01T06:06:03.222Z,53.20
2018-04-01T06:07:05.214Z,56.60
2018-04-01T06:08:07.235Z,55.12
2018-04-01T06:09:09.227Z,59.95
2018-04-01T06:10:11.796Z,57.75
2018-04-01T06:11:14.238Z,54.63
2018-04-01T06:12:16.301Z,52.53
2018-04-01T06:13:18.258Z,56.97
2018-04-01T06:14:20.287Z,54.78
2018-04-01T06:15:22.328Z,55.50
2018-04-01T06:16:24.360Z,51.22
2018-04-01T06:17:26.396Z,57.62
2018-04-01T06:18:28.373Z,54.88
2018-04-01T06:19:30.394Z,55.67
2018-04-01T06:20:33.153Z,55.97
2018-04-01T06:21:35.144Z,53.58
2018-04-01T06:22:37.664Z,52.58
2018-04-01T06:23:39.668Z,52.85
2018-04-01T06:24:42.439Z,59.28
2018-04-01T06:25:45.237Z,53.10
2018-04-01T06:26:47.233Z,54.13
2018-04-01T06:27:49.218Z,50.83
2018-04-01T06:28:51.228Z,56.22
2018-04-01T06:29:53.242Z,56.95
2018-04-01T06:30:56.290Z,51.00
2018-04-01T06:31:58.621Z,48.70
2018-04-01T06:33:00.615Z,52.53
2018-04-01T06:34:03.002Z,53.38
2018-04-01T06:35:05.271Z,55.50
2018-04-01T06:36:07.260Z,50.55
2018-04-01T06:37:09.240Z,60.92
2018-04-01T06:38:11.379Z,59.75
2018-04-01T06:39:14.272Z,56.25
2018-04-01T06:40:16.302Z,58.80
2018-04-01T06:41:18.300Z,51.70
2018-04-01T06:42:20.608Z,57.25
2018-04-01T06:43:22.623Z,56.95
2018-04-01T06:44:24.628Z,51.33
2018-04-01T06:45:26.657Z,56.50
2018-04-01T06:46:29.434Z,53.20
2018-04-01T06:47:31.599Z,53.83
2018-04-01T06:48:33.779Z,52.60
2018-04-01T06:49:35.773Z,54.85
2018-04-01T06:50:39.703Z,54.60
2018-04-01T06:51:41.793Z,50.85
2018-04-01T06:52:43.799Z,55.70
2018-04-01T06:53:46.588Z,54.33
2018-04-01T06:54:49.588Z,60.30
2018-04-01T06:55:51.872Z,50.53
2018-04-01T06:56:53.874Z,55.33
2018-04-01T06:57:56.524Z,54.97
2018-04-01T06:58:58.520Z,50.22
2018-04-01T07:00:01.316Z,43.65
2018-04-01T07:01:03.331Z,43.22
2018-04-01T07:02:05.351Z,47.03
2018-04-01T07:03:08.154Z,45.97
2018-04-01T07:04:10.262Z,43.40
2018-04-01T07:05:12.482Z,42.53
2018-04-01T07:06:14.493Z,45.72
2018-04-01T07:07:17.300Z,45.35
2018-04-01T07:08:19.303Z,46.85
2018-04-01T07:09:21.338Z,49.85
2018-04-01T07:10:23.340Z,49.33
2018-04-01T07:11:25.326Z,51.25
2018-04-01T07:12:27.360Z,52.58
2018-04-01T07:13:29.388Z,47.65
2018-04-01T07:14:31.384Z,49.03
2018-04-01T07:15:33.423Z,57.15
2018-04-01T07:16:36.192Z,53.20
2018-04-01T07:17:38.288Z,58.28
2018-04-01T07:18:40.273Z,55.88
2018-04-01T07:19:42.265Z,58.60
2018-04-01T07:20:44.266Z,59.47
2018-04-01T07:21:47.017Z,58.20
2018-04-01T07:22:49.036Z,62.58
2018-04-01T07:23:51.034Z,58.40
2018-04-01T07:24:53.777Z,49.33
2018-04-01T07:25:56.104Z,54.05
2018-04-01T07:26:58.115Z,57.15
2018-04-01T07:28:00.129Z,57.20
2018-04-01T07:29:02.185Z,58.97
2018-04-01T07:30:04.257Z,61.17
2018-04-01T07:31:06.268Z,63.87
2018-04-01T07:32:09.874Z,59.78
2018-04-01T07:33:12.720Z,65.20
2018-04-01T07:34:14.731Z,54.83
2018-04-01T07:35:16.735Z,49.65
2018-04-01T07:36:18.806Z,47.47
2018-04-01T07:37:20.771Z,49.05
2018-04-01T07:38:22.768Z,55.85
2018-04-01T07:39:24.776Z,54.33
2018-04-01T07:40:26.759Z,55.30
2018-04-01T07:41:29.524Z,50.70
2018-04-01T07:42:31.525Z,52.40
2018-04-01T07:43:33.528Z,54.42
2018-04-01T07:44:35.546Z,47.92
2018-04-01T07:45:37.559Z,49.38
2018-04-01T07:46:39.581Z,47.40
2018-04-01T07:47:41.600Z,44.78
2018-04-01T07:48:44.354Z,50.03
2018-04-01T07:49:46.376Z,50.83
2018-04-01T07:50:48.627Z,47.62
2018-04-01T07:51:50.631Z,48.95
2018-04-01T07:52:52.631Z,48.80
2018-04-01T07:53:54.641Z,45.58
2018-04-01T07:54:56.694Z,47.60
2018-04-01T07:55:58.681Z,52.47
2018-04-01T07:57:00.675Z,45.17
2018-04-01T07:58:02.713Z,43.72
2018-04-01T07:59:05.465Z,48.35
2018-04-01T08:00:07.474Z,44.53
2018-04-01T08:01:11.630Z,45.83
2018-04-01T08:02:14.230Z,45.00
2018-04-01T08:03:17.019Z,41.95
2018-04-01T08:04:19.243Z,47.97
2018-04-01T08:05:21.328Z,38.83
2018-04-01T08:06:23.327Z,39.30
2018-04-01T08:07:25.326Z,41.17
2018-04-01T08:08:27.341Z,39.67
2018-04-01T08:09:29.338Z,38.67
2018-04-01T08:10:31.357Z,39.80
2018-04-01T08:11:33.389Z,38.03
2018-04-01T08:12:36.176Z,34.22
2018-04-01T08:13:38.171Z,29.23
2018-04-01T08:14:40.554Z,30.73
2018-04-01T08:15:42.626Z,31.60
2018-04-01T08:16:44.642Z,29.33
2018-04-01T08:17:46.663Z,32.00
2018-04-01T08:18:49.440Z,34.28
2018-04-01T08:19:51.476Z,30.45
2018-04-01T08:20:53.487Z,28.50
2018-04-01T08:21:55.528Z,27.90
2018-04-01T08:22:57.902Z,33.75
2018-04-01T08:23:59.911Z,27.02
2018-04-01T08:25:02.053Z,31.10
2018-04-01T08:26:04.050Z,29.67
2018-04-01T08:27:06.034Z,27.40
2018-04-01T08:28:08.028Z,28.12
2018-04-01T08:29:10.088Z,28.40
2018-04-01T08:30:12.955Z,30.52
2018-04-01T08:31:15.009Z,26.52
2018-04-01T08:32:17.031Z,28.10
2018-04-01T08:33:19.646Z,30.75
2018-04-01T08:34:21.755Z,36.45
2018-04-01T08:35:23.759Z,29.98
2018-04-01T08:36:25.798Z,30.85
2018-04-01T08:37:29.129Z,29.48
2018-04-01T08:38:31.277Z,27.77
2018-04-01T08:39:33.270Z,27.90
2018-04-01T08:40:35.293Z,27.75
2018-04-01T08:41:37.317Z,28.15
2018-04-01T08:42:39.330Z,26.58
2018-04-01T08:43:41.329Z,24.70
2018-04-01T08:44:43.335Z,26.90
2018-04-01T08:45:45.344Z,27.35
2018-04-01T08:46:47.366Z,30.88
2018-04-01T08:47:49.353Z,29.50
2018-04-01T08:48:51.359Z,24.58
2018-04-01T08:49:53.359Z,23.83
2018-04-01T08:50:55.360Z,24.08
2018-04-01T08:51:58.167Z,23.00
2018-04-01T08:53:00.183Z,23.85
2018-04-01T08:54:02.209Z,27.80
2018-04-01T08:55:04.269Z,25.08
2018-04-01T08:56:06.310Z,24.37
2018-04-01T08:57:08.315Z,26.05
2018-04-01T08:58:10.530Z,22.90
2018-04-01T08:59:13.351Z,25.15
2018-04-01T09:00:15.370Z,19.73
2018-04-01T09:01:17.374Z,22.75
2018-04-01T09:02:19.380Z,21.67
2018-04-01T09:03:21.431Z,22.08
2018-04-01T09:04:23.454Z,25.45
2018-04-01T09:05:25.453Z,22.05
2018-04-01T09:06:28.292Z,23.00
2018-04-01T09:07:31.106Z,25.60
2018-04-01T09:08:33.135Z,24.23
2018-04-01T09:09:35.173Z,29.10
2018-04-01T09:10:37.279Z,23.00
2018-04-01T09:11:39.306Z,21.75
2018-04-01T09:12:42.318Z,23.92
2018-04-01T09:13:44.594Z,24.77
2018-04-01T09:14:46.647Z,23.65
2018-04-01T09:15:49.740Z,20.10
2018-04-01T09:16:51.771Z,24.02
2018-04-01T09:17:53.881Z,25.37
2018-04-01T09:18:55.887Z,21.58
2018-04-01T09:19:57.908Z,21.70
2018-04-01T09:21:00.851Z,25.58
2018-04-01T09:22:02.891Z,23.90
2018-04-01T09:23:05.694Z,24.77
2018-04-01T09:24:08.523Z,24.83
2018-04-01T09:25:13.043Z,24.30
2018-04-01T09:26:15.061Z,20.50
2018-04-01T09:27:17.061Z,27.33
2018-04-01T09:28:19.078Z,23.00
2018-04-01T09:29:23.677Z,23.95
2018-04-01T09:30:26.464Z,25.73
2018-04-01T09:31:28.568Z,22.83
2018-04-01T09:32:30.697Z,22.27
2018-04-01T09:33:32.729Z,22.30
2018-04-01T09:34:35.653Z,23.77
2018-04-01T09:35:37.683Z,23.98
2018-04-01T09:36:39.848Z,22.50
2018-04-01T09:37:41.866Z,28.35
2018-04-01T09:38:43.898Z,20.95
2018-04-01T09:39:45.914Z,20.15
2018-04-01T09:40:48.676Z,21.10
2018-04-01T09:41:50.700Z,21.80
2018-04-01T09:42:53.169Z,19.33
2018-04-01T09:43:55.196Z,20.23
2018-04-01T09:44:57.219Z,19.50
2018-04-01T09:45:59.243Z,23.35
2018-04-01T09:47:01.226Z,19.77
2018-04-01T09:48:03.249Z,19.17
2018-04-01T09:49:05.280Z,22.75
2018-04-01T09:50:07.657Z,23.52
2018-04-01T09:51:10.438Z,23.83
2018-04-01T09:52:12.672Z,21.00
2018-04-01T09:53:15.221Z,21.58
2018-04-01T09:54:17.239Z,20.12
2018-04-01T09:55:19.277Z,22.83
2018-04-01T09:56:21.285Z,23.65
2018-04-01T09:57:23.302Z,24.55
2018-04-01T09:58:25.427Z,26.00
2018-04-01T09:59:27.445Z,25.45
2018-04-01T10:00:29.716Z,26.15
2018-04-01T10:01:32.252Z,29.42
2018-04-01T10:02:35.527Z,27.75
2018-04-01T10:03:38.732Z,25.17
2018-04-01T10:04:41.269Z,28.70
2018-04-01T10:05:44.645Z,28.60
2018-04-01T10:06:47.164Z,31.45
2018-04-01T10:07:50.435Z,29.30
2018-04-01T10:08:53.038Z,37.35
2018-04-01T10:09:55.554Z,49.05
2018-04-01T10:10:58.238Z,34.53
2018-04-01T10:12:00.731Z,42.83
2018-04-01T10:13:03.984Z,35.47
2018-04-01T10:14:06.523Z,38.47
2018-04-01T10:15:09.085Z,35.53
2018-04-01T10:16:11.692Z,37.40
2018-04-01T10:17:14.182Z,36.30
2018-04-01T10:18:17.522Z,39.13
2018-04-01T10:19:20.783Z,42.17
2018-04-01T10:20:23.299Z,38.47
2018-04-01T10:21:25.773Z,35.95
2018-04-01T10:22:28.322Z,36.00
2018-04-01T10:23:30.829Z,38.08
2018-04-01T10:24:33.318Z,41.05
2018-04-01T10:25:35.832Z,35.30
2018-04-01T10:26:38.357Z,39.47
2018-04-01T10:27:40.838Z,36.10
2018-04-01T10:28:43.598Z,36.40
2018-04-01T10:29:46.152Z,35.38
2018-04-01T10:30:48.696Z,34.42
2018-04-01T10:31:51.204Z,36.70
2018-04-01T10:32:53.684Z,34.13
2018-04-01T10:33:56.757Z,41.10
2018-04-01T10:34:59.269Z,37.70
2018-04-01T10:36:02.812Z,39.33
2018-04-01T10:37:05.916Z,32.72
2018-04-01T10:38:08.428Z,34.70
2018-04-01T10:39:11.986Z,39.78
2018-04-01T10:40:14.509Z,39.90
2018-04-01T10:41:17.033Z,35.33
2018-04-01T10:42:19.528Z,35.88
2018-04-01T10:43:22.834Z,36.65
2018-04-01T10:44:26.389Z,33.15
2018-04-01T10:45:28.986Z,39.88
2018-04-01T10:46:32.266Z,41.35
2018-04-01T10:47:34.847Z,40.88
2018-04-01T10:48:38.125Z,45.92
2018-04-01T10:49:40.622Z,38.00
2018-04-01T10:50:43.348Z,46.03
2018-04-01T10:51:45.852Z,44.83
2018-04-01T10:52:49.121Z,44.58
2018-04-01T10:53:56.095Z,42.85
2018-04-01T10:54:58.160Z,44.13
2018-04-01T10:56:02.184Z,41.22
2018-04-01T10:57:04.977Z,46.65
2018-04-01T10:58:07.743Z,40.38
2018-04-01T10:59:10.719Z,47.45
2018-04-01T11:00:13.522Z,43.63
2018-04-01T11:01:15.542Z,45.08
2018-04-01T11:02:17.586Z,43.25
2018-04-01T11:03:19.572Z,42.30
2018-04-01T11:04:22.337Z,44.55
2018-04-01T11:05:24.347Z,40.45
2018-04-01T11:06:26.417Z,45.38
2018-04-01T11:07:28.665Z,46.15
2018-04-01T11:08:30.697Z,42.92
2018-04-01T11:09:33.504Z,41.67
2018-04-01T11:10:35.507Z,39.55
2018-04-01T11:11:37.502Z,38.00
2018-04-01T11:12:40.249Z,43.53
2018-04-01T11:13:42.988Z,43.78
2018-04-01T11:14:45.010Z,40.50
2018-04-01T11:15:47.028Z,34.63
2018-04-01T11:16:49.109Z,43.40
2018-04-01T11:17:51.692Z,37.83
2018-04-01T11:18:54.547Z,36.53
2018-04-01T11:19:56.518Z,37.80
2018-04-01T11:20:58.530Z,34.20
2018-04-01T11:22:00.552Z,33.88
2018-04-01T11:23:03.583Z,33.50
2018-04-01T11:24:05.621Z,37.20
2018-04-01T11:25:09.936Z,38.00
2018-04-01T11:26:12.289Z,36.17
2018-04-01T11:27:14.318Z,35.40
2018-04-01T11:28:16.309Z,38.22
2018-04-01T11:29:18.337Z,33.92
2018-04-01T11:30:20.349Z,34.63
2018-04-01T11:31:22.382Z,37.92
2018-04-01T11:32:25.162Z,37.42
2018-04-01T11:33:27.934Z,35.95
2018-04-01T11:34:31.666Z,38.10
2018-04-01T11:35:33.665Z,41.60
2018-04-01T11:36:35.671Z,40.90
2018-04-01T11:37:37.660Z,41.00
2018-04-01T11:38:39.732Z,40.72
2018-04-01T11:39:42.676Z,47.50
2018-04-01T11:40:45.486Z,48.97
2018-04-01T11:41:47.521Z,43.97
2018-04-01T11:42:50.345Z,45.20
2018-04-01T11:43:53.080Z,56.08
2018-04-01T11:44:55.132Z,57.83
2018-04-01T11:45:57.162Z,65.22
2018-04-01T11:46:59.169Z,62.10
2018-04-01T11:48:01.459Z,55.65
2018-04-01T11:49:03.447Z,63.30
2018-04-01T11:50:05.432Z,63.75
2018-04-01T11:51:07.489Z,63.13
2018-04-01T11:52:09.502Z,67.43
2018-04-01T11:53:12.307Z,64.62
2018-04-01T11:54:14.297Z,69.40
2018-04-01T11:55:16.288Z,69.93
2018-04-01T11:56:18.328Z,73.62
2018-04-01T11:57:20.924Z,65.78
2018-04-01T11:58:22.927Z,68.28
2018-04-01T11:59:24.941Z,67.28
2018-04-01T12:00:26.949Z,68.25
2018-04-01T12:01:28.959Z,65.45
2018-04-01T12:02:31.891Z,69.75
2018-04-01T12:03:33.906Z,70.72
2018-04-01T12:04:36.078Z,64.62
2018-04-01T12:05:38.882Z,69.43
2018-04-01T12:06:40.894Z,60.67
2018-04-01T12:07:42.946Z,57.90
2018-04-01T12:08:44.953Z,59.28
2018-04-01T12:09:46.947Z,62.17
2018-04-01T12:10:48.981Z,61.35
2018-04-01T12:11:50.977Z,62.22
2018-04-01T12:12:52.978Z,68.25
2018-04-01T12:13:54.991Z,65.57
2018-04-01T12:14:56.989Z,58.90
2018-04-01T12:15:58.982Z,60.25
2018-04-01T12:17:00.988Z,52.13
2018-04-01T12:18:03.012Z,60.12
2018-04-01T12:19:05.014Z,54.95
2018-04-01T12:20:07.050Z,63.00
2018-04-01T12:21:09.061Z,58.28
2018-04-01T12:22:12.388Z,56.05
2018-04-01T12:23:14.377Z,61.72
2018-04-01T12:24:16.380Z,58.08
2018-04-01T12:25:18.390Z,59.00
2018-04-01T12:26:20.960Z,53.92
2018-04-01T12:27:22.962Z,56.75
2018-04-01T12:28:24.968Z,56.30
2018-04-01T12:29:26.969Z,49.83
2018-04-01T12:30:29.850Z,50.28
2018-04-01T12:31:31.902Z,47.83
2018-04-01T12:32:34.660Z,48.58
2018-04-01T12:33:36.652Z,51.65
2018-04-01T12:34:38.639Z,53.30
2018-04-01T12:35:40.657Z,48.42
2018-04-01T12:36:42.681Z,46.45
2018-04-01T12:37:44.708Z,53.10
2018-04-01T12:38:46.732Z,51.22
2018-04-01T12:39:48.696Z,57.00
2018-04-01T12:40:51.476Z,51.72
2018-04-01T12:41:54.266Z,47.65
2018-04-01T12:42:57.019Z,49.60
2018-04-01T12:44:01.695Z,50.67
2018-04-01T12:45:03.726Z,46.80
2018-04-01T12:46:05.732Z,45.03
2018-04-01T12:47:07.770Z,43.95
2018-04-01T12:48:10.583Z,41.13
2018-04-01T12:49:13.181Z,47.65
2018-04-01T12:50:15.948Z,42.47
2018-04-01T12:51:18.271Z,47.40
2018-04-01T12:52:20.299Z,48.13
2018-04-01T12:53:22.352Z,47.90
2018-04-01T12:54:24.370Z,46.78
2018-04-01T12:55:26.373Z,47.78
2018-04-01T12:56:28.382Z,38.47
2018-04-01T12:57:30.415Z,41.72
2018-04-01T12:58:32.423Z,41.25
2018-04-01T12:59:35.351Z,42.85
2018-04-01T13:00:37.358Z,41.80
2018-04-01T13:01:40.335Z,43.35
2018-04-01T13:02:42.356Z,43.38
2018-04-01T13:03:44.398Z,36.90
2018-04-01T13:04:46.431Z,37.72
2018-04-01T13:05:49.197Z,40.03
2018-04-01T13:06:51.532Z,35.25
2018-04-01T13:07:54.036Z,43.53
2018-04-01T13:08:56.103Z,35.17
2018-04-01T13:09:58.111Z,37.97
2018-04-01T13:11:00.981Z,38.83
2018-04-01T13:12:03.052Z,39.10
2018-04-01T13:13:05.084Z,38.33
2018-04-01T13:14:07.112Z,36.38
2018-04-01T13:15:09.130Z,38.40
2018-04-01T13:16:11.178Z,36.70
2018-04-01T13:17:14.819Z,28.55
2018-04-01T13:18:16.809Z,33.72
2018-04-01T13:19:19.069Z,31.92
2018-04-01T13:20:21.272Z,39.22
2018-04-01T13:21:23.282Z,34.63
2018-04-01T13:22:26.039Z,33.50
2018-04-01T13:23:28.039Z,28.33
2018-04-01T13:24:30.622Z,26.10
2018-04-01T13:25:32.674Z,29.83
2018-04-01T13:26:34.693Z,32.63
2018-04-01T13:27:36.814Z,31.15
2018-04-01T13:28:38.847Z,31.77
2018-04-01T13:29:40.859Z,38.03
2018-04-01T13:30:42.881Z,39.33
2018-04-01T13:31:44.881Z,35.88
2018-04-01T13:32:46.887Z,30.60
2018-04-01T13:33:48.899Z,35.38
2018-04-01T13:34:51.010Z,35.17
2018-04-01T13:35:53.015Z,33.50
2018-04-01T13:36:55.022Z,35.15
2018-04-01T13:37:57.021Z,30.90
2018-04-01T13:38:59.041Z,33.95
2018-04-01T13:40:01.036Z,30.05
2018-04-01T13:41:03.032Z,33.40
2018-04-01T13:42:05.126Z,31.15
2018-04-01T13:43:07.120Z,32.10
2018-04-01T13:44:10.004Z,30.67